sensor_id;sensor_type;location;lat;lon;timestamp;pressure;altitude;pressure_sealevel;temperature;humidity
7930;BME280;4010;42.698;23.124;2022-09-23T00:01:00;112823.66;;;-140.64;100.00
7930;BME280;4010;42.698;23.124;2022-09-23T00:03:30;101794.66;;;-140.64;100.00
7930;BME280;4010;42.698;23.124;2022-09-23T00:05:58;98911.84;;;-140.64;100.00
7930;BME280;4010;42.698;23.124;2022-09-23T00:08:25;99173.81;;;-140.64;100.00
7930;BME280;4010;42.698;23.124;2022-09-23T00:10:52;95508.00;;;-140.64;100.00
7930;BME280;4010;42.698;23.124;2022-09-23T00:13:19;88971.47;;;-140.64;100.00
7930;BME280;4010;42.698;23.124;2022-09-23T00:15:45;87926.78;;;-140.64;100.00
7930;BME280;4010;42.698;23.124;2022-09-23T00:18:12;85316.41;;;-140.64;100.00
7930;BME280;4010;42.698;23.124;2022-09-23T00:20:40;82447.31;;;-140.64;100.00
7930;BME280;4010;42.698;23.124;2022-09-23T00:23:07;79580.59;;;-140.64;100.00
7930;BME280;4010;42.698;23.124;2022-09-23T00:25:33;79320.09;;;-140.64;100.00
7930;BME280;4010;42.698;23.124;2022-09-23T00:28:00;78538.72;;;-140.64;100.00
7930;BME280;4010;42.698;23.124;2022-09-23T00:30:27;79320.09;;;-140.64;100.00
7930;BME280;4010;42.698;23.124;2022-09-23T00:32:55;80101.63;;;-140.64;100.00
7930;BME280;4010;42.698;23.124;2022-09-23T00:35:22;79059.63;;;-140.64;100.00
7930;BME280;4010;42.698;23.124;2022-09-23T00:37:50;76976.53;;;-140.64;100.00
7930;BME280;4010;42.698;23.124;2022-09-23T00:40:17;75935.47;;;-140.64;100.00
7930;BME280;4010;42.698;23.124;2022-09-23T00:42:45;75415.06;;;-140.64;100.00
7930;BME280;4010;42.698;23.124;2022-09-23T00:45:13;74634.59;;;-140.64;100.00
7930;BME280;4010;42.698;23.124;2022-09-23T00:47:43;74374.47;;;-140.64;100.00
7930;BME280;4010;42.698;23.124;2022-09-23T00:50:16;73854.28;;;-140.64;100.00
7930;BME280;4010;42.698;23.124;2022-09-23T00:52:46;75935.47;;;-140.64;100.00
7930;BME280;4010;42.698;23.124;2022-09-23T00:55:18;74894.72;;;-140.64;100.00
7930;BME280;4010;42.698;23.124;2022-09-23T00:57:48;76195.72;;;-140.64;100.00
7930;BME280;4010;42.698;23.124;2022-09-23T01:00:15;75935.47;;;-140.64;100.00
7930;BME280;4010;42.698;23.124;2022-09-23T01:02:41;76716.25;;;-140.64;100.00
7930;BME280;4010;42.698;23.124;2022-09-23T01:16:58;75154.88;;;-140.64;100.00
7930;BME280;4010;42.698;23.124;2022-09-23T01:19:40;76455.97;;;-140.64;100.00
7930;BME280;4010;42.698;23.124;2022-09-23T01:22:15;78799.16;;;-140.64;100.00
7930;BME280;4010;42.698;23.124;2022-09-23T01:24:57;78017.91;;;-140.64;100.00
7930;BME280;4010;42.698;23.124;2022-09-23T01:27:55;76455.97;;;-140.64;100.00
7930;BME280;4010;42.698;23.124;2022-09-23T01:30:40;76716.25;;;-140.64;100.00
7930;BME280;4010;42.698;23.124;2022-09-23T01:33:12;77236.84;;;-140.64;100.00
7930;BME280;4010;42.698;23.124;2022-09-23T01:36:01;77497.19;;;-140.64;100.00
7930;BME280;4010;42.698;23.124;2022-09-23T01:38:39;78017.91;;;-140.64;100.00
7930;BME280;4010;42.698;23.124;2022-09-23T01:41:20;78799.16;;;-140.64;100.00
7930;BME280;4010;42.698;23.124;2022-09-23T01:43:56;80622.75;;;-140.64;100.00
7930;BME280;4010;42.698;23.124;2022-09-23T01:46:29;80362.19;;;-140.64;100.00
7930;BME280;4010;42.698;23.124;2022-09-23T01:49:03;78799.16;;;-140.64;100.00
7930;BME280;4010;42.698;23.124;2022-09-23T01:51:36;78538.72;;;-140.64;100.00
7930;BME280;4010;42.698;23.124;2022-09-23T01:54:09;77497.19;;;-140.64;100.00
7930;BME280;4010;42.698;23.124;2022-09-23T01:56:42;75415.06;;;-140.64;100.00
7930;BME280;4010;42.698;23.124;2022-09-23T01:59:15;73854.28;;;-140.64;100.00
7930;BME280;4010;42.698;23.124;2022-09-23T02:01:51;72814.16;;;-140.64;100.00
7930;BME280;4010;42.698;23.124;2022-09-23T02:04:22;71514.47;;;-140.64;100.00
7930;BME280;4010;42.698;23.124;2022-09-23T02:06:54;70215.25;;;-140.64;100.00
7930;BME280;4010;42.698;23.124;2022-09-23T02:09:24;68397.19;;;-140.64;100.00
7930;BME280;4010;42.698;23.124;2022-09-23T02:11:59;69435.97;;;-140.64;100.00
7930;BME280;4010;42.698;23.124;2022-09-23T02:14:31;70734.88;;;-140.64;100.00
7930;BME280;4010;42.698;23.124;2022-09-23T02:17:06;70734.88;;;-140.64;100.00
7930;BME280;4010;42.698;23.124;2022-09-23T02:19:40;71254.59;;;-140.64;100.00
7930;BME280;4010;42.698;23.124;2022-09-23T02:22:10;70475.06;;;-140.64;100.00
7930;BME280;4010;42.698;23.124;2022-09-23T02:24:39;71774.38;;;-140.64;100.00
7930;BME280;4010;42.698;23.124;2022-09-23T02:27:11;73074.16;;;-140.64;100.00
7930;BME280;4010;42.698;23.124;2022-09-23T02:29:48;73594.22;;;-140.64;100.00
7930;BME280;4010;42.698;23.124;2022-09-23T02:32:22;74114.38;;;-140.64;100.00
7930;BME280;4010;42.698;23.124;2022-09-23T02:34:58;74894.72;;;-140.64;100.00
7930;BME280;4010;42.698;23.124;2022-09-23T02:37:30;75154.88;;;-140.64;100.00
7930;BME280;4010;42.698;23.124;2022-09-23T02:40:03;77757.53;;;-140.64;100.00
7930;BME280;4010;42.698;23.124;2022-09-23T02:42:41;79059.63;;;-140.64;100.00
7930;BME280;4010;42.698;23.124;2022-09-23T02:45:11;79580.59;;;-140.64;100.00
7930;BME280;4010;42.698;23.124;2022-09-23T02:47:41;80101.63;;;-140.64;100.00
7930;BME280;4010;42.698;23.124;2022-09-23T02:50:09;80362.19;;;-140.64;100.00
7930;BME280;4010;42.698;23.124;2022-09-23T02:52:36;80883.34;;;-140.64;100.00
7930;BME280;4010;42.698;23.124;2022-09-23T02:55:04;80883.34;;;-140.64;100.00
7930;BME280;4010;42.698;23.124;2022-09-23T02:57:31;78799.16;;;-140.64;100.00
7930;BME280;4010;42.698;23.124;2022-09-23T02:59:58;79059.63;;;-140.64;100.00
7930;BME280;4010;42.698;23.124;2022-09-23T03:02:41;80362.19;;;-140.64;100.00
7930;BME280;4010;42.698;23.124;2022-09-23T03:05:18;81925.91;;;-140.64;100.00
7930;BME280;4010;42.698;23.124;2022-09-23T03:07:55;81404.59;;;-140.64;100.00
7930;BME280;4010;42.698;23.124;2022-09-23T03:10:29;82447.31;;;-140.64;100.00
7930;BME280;4010;42.698;23.124;2022-09-23T03:13:06;82968.78;;;-140.64;100.00
7930;BME280;4010;42.698;23.124;2022-09-23T03:15:45;82708.03;;;-140.64;100.00
7930;BME280;4010;42.698;23.124;2022-09-23T03:18:20;83751.16;;;-140.64;100.00
7930;BME280;4010;42.698;23.124;2022-09-23T03:20:54;83490.34;;;-140.64;100.00
7930;BME280;4010;42.698;23.124;2022-09-23T03:23:26;83751.16;;;-140.64;100.00
7930;BME280;4010;42.698;23.124;2022-09-23T03:25:56;85055.50;;;-140.64;100.00
7930;BME280;4010;42.698;23.124;2022-09-23T03:28:26;85055.50;;;-140.64;100.00
7930;BME280;4010;42.698;23.124;2022-09-23T03:30:54;84794.59;;;-140.64;100.00
7930;BME280;4010;42.698;23.124;2022-09-23T03:33:25;85838.34;;;-140.64;100.00
7930;BME280;4010;42.698;23.124;2022-09-23T03:35:56;86621.34;;;-140.64;100.00
7930;BME280;4010;42.698;23.124;2022-09-23T03:38:44;85316.41;;;-140.64;100.00
7930;BME280;4010;42.698;23.124;2022-09-23T03:41:20;85316.41;;;-140.64;100.00
7930;BME280;4010;42.698;23.124;2022-09-23T03:43:53;83490.34;;;-140.64;100.00
7930;BME280;4010;42.698;23.124;2022-09-23T03:46:23;82708.03;;;-140.64;100.00
7930;BME280;4010;42.698;23.124;2022-09-23T03:48:54;80622.75;;;-140.64;100.00
7930;BME280;4010;42.698;23.124;2022-09-23T03:51:24;78017.91;;;-140.64;100.00
7930;BME280;4010;42.698;23.124;2022-09-23T03:53:51;79320.09;;;-140.64;100.00
7930;BME280;4010;42.698;23.124;2022-09-23T03:56:18;80101.63;;;-140.64;100.00
7930;BME280;4010;42.698;23.124;2022-09-23T03:58:45;79841.09;;;-140.64;100.00
7930;BME280;4010;42.698;23.124;2022-09-23T04:01:13;80362.19;;;-140.64;100.00
7930;BME280;4010;42.698;23.124;2022-09-23T04:03:40;81143.94;;;-140.64;100.00
7930;BME280;4010;42.698;23.124;2022-09-23T04:06:08;80101.63;;;-140.64;100.00
7930;BME280;4010;42.698;23.124;2022-09-23T04:08:35;80883.34;;;-140.64;100.00
7930;BME280;4010;42.698;23.124;2022-09-23T04:11:02;81665.25;;;-140.64;100.00
7930;BME280;4010;42.698;23.124;2022-09-23T04:13:29;80622.75;;;-140.64;100.00
7930;BME280;4010;42.698;23.124;2022-09-23T04:15:56;81404.59;;;-140.64;100.00
7930;BME280;4010;42.698;23.124;2022-09-23T04:18:23;78538.72;;;-140.64;100.00
7930;BME280;4010;42.698;23.124;2022-09-23T04:20:50;77497.19;;;-140.64;100.00
7930;BME280;4010;42.698;23.124;2022-09-23T04:23:18;74894.72;;;-140.64;100.00
7930;BME280;4010;42.698;23.124;2022-09-23T04:25:45;74374.47;;;-140.64;100.00
7930;BME280;4010;42.698;23.124;2022-09-23T04:28:12;73854.28;;;-140.64;100.00
7930;BME280;4010;42.698;23.124;2022-09-23T04:30:39;73074.16;;;-140.64;100.00
7930;BME280;4010;42.698;23.124;2022-09-23T04:33:08;73594.22;;;-140.64;100.00
7930;BME280;4010;42.698;23.124;2022-09-23T04:35:36;74374.47;;;-140.64;100.00
7930;BME280;4010;42.698;23.124;2022-09-23T04:38:03;74894.72;;;-140.64;100.00
7930;BME280;4010;42.698;23.124;2022-09-23T04:40:31;74374.47;;;-140.64;100.00
7930;BME280;4010;42.698;23.124;2022-09-23T04:42:58;73854.28;;;-140.64;100.00
7930;BME280;4010;42.698;23.124;2022-09-23T04:45:25;73594.22;;;-140.64;100.00
7930;BME280;4010;42.698;23.124;2022-09-23T04:47:52;72034.28;;;-140.64;100.00
7930;BME280;4010;42.698;23.124;2022-09-23T04:50:18;69435.97;;;-140.64;100.00
7930;BME280;4010;42.698;23.124;2022-09-23T04:52:45;66320.59;;;-140.64;100.00
7930;BME280;4010;42.698;23.124;2022-09-23T04:55:12;59839.34;;;-140.64;100.00
7930;BME280;4010;42.698;23.124;2022-09-23T04:57:40;51303.00;;;-140.64;100.00
7930;BME280;4010;42.698;23.124;2022-09-23T05:00:08;52595.00;;;-140.64;100.00
7930;BME280;4010;42.698;23.124;2022-09-23T05:02:41;48720.47;;;-140.64;100.00
7930;BME280;4010;42.698;23.124;2022-09-23T05:05:08;49236.81;;;-140.64;100.00
7930;BME280;4010;42.698;23.124;2022-09-23T05:07:34;57767.97;;;-140.64;100.00
7930;BME280;4010;42.698;23.124;2022-09-23T05:10:01;73594.22;;;-140.64;100.00
7930;BME280;4010;42.698;23.124;2022-09-23T05:12:28;83490.34;;;-140.64;100.00
7930;BME280;4010;42.698;23.124;2022-09-23T05:14:56;83490.34;;;-140.64;100.00
7930;BME280;4010;42.698;23.124;2022-09-23T05:17:24;69695.72;;;-140.64;100.00
7930;BME280;4010;42.698;23.124;2022-09-23T05:19:50;67618.31;;;-140.64;100.00
7930;BME280;4010;42.698;23.124;2022-09-23T05:22:17;103630.41;;;-140.64;100.00
7930;BME280;4010;42.698;23.124;2022-09-23T05:24:44;118349.16;;;-140.64;100.00
7930;BME280;4010;42.698;23.124;2022-09-23T05:27:11;118349.16;;;-140.64;100.00
7930;BME280;4010;42.698;23.124;2022-09-23T05:29:38;118349.16;;;-140.64;100.00
7930;BME280;4010;42.698;23.124;2022-09-23T05:32:06;118349.16;;;-140.64;100.00
7930;BME280;4010;42.698;23.124;2022-09-23T05:34:32;118349.16;;;-140.64;100.00
7930;BME280;4010;42.698;23.124;2022-09-23T05:36:59;118349.16;;;-140.64;100.00
7930;BME280;4010;42.698;23.124;2022-09-23T05:39:26;118349.16;;;-140.64;100.00
7930;BME280;4010;42.698;23.124;2022-09-23T05:41:53;118349.16;;;-140.64;100.00
7930;BME280;4010;42.698;23.124;2022-09-23T05:44:20;118349.16;;;-140.64;100.00
7930;BME280;4010;42.698;23.124;2022-09-23T05:46:47;118349.16;;;-140.64;100.00
7930;BME280;4010;42.698;23.124;2022-09-23T05:49:15;118349.16;;;-140.64;100.00
7930;BME280;4010;42.698;23.124;2022-09-23T05:51:42;118349.16;;;-140.64;100.00
7930;BME280;4010;42.698;23.124;2022-09-23T05:54:08;118349.16;;;-140.64;100.00
7930;BME280;4010;42.698;23.124;2022-09-23T05:56:36;118349.16;;;-140.64;100.00
7930;BME280;4010;42.698;23.124;2022-09-23T05:59:04;118349.16;;;-140.64;100.00
7930;BME280;4010;42.698;23.124;2022-09-23T06:01:33;118349.16;;;-140.64;100.00
7930;BME280;4010;42.698;23.124;2022-09-23T06:04:02;118349.16;;;-140.64;100.00
7930;BME280;4010;42.698;23.124;2022-09-23T06:06:32;118349.16;;;-140.64;100.00
7930;BME280;4010;42.698;23.124;2022-09-23T06:08:59;118349.16;;;-140.64;100.00
7930;BME280;4010;42.698;23.124;2022-09-23T06:11:29;118349.16;;;-140.64;100.00
7930;BME280;4010;42.698;23.124;2022-09-23T06:13:57;118349.16;;;-140.64;100.00
7930;BME280;4010;42.698;23.124;2022-09-23T06:16:25;118349.16;;;-140.64;100.00
7930;BME280;4010;42.698;23.124;2022-09-23T06:18:52;118349.16;;;-140.64;100.00
7930;BME280;4010;42.698;23.124;2022-09-23T06:21:19;118349.16;;;-140.64;100.00
7930;BME280;4010;42.698;23.124;2022-09-23T06:23:47;118349.16;;;-140.64;100.00
7930;BME280;4010;42.698;23.124;2022-09-23T06:26:15;118349.16;;;-140.64;100.00
7930;BME280;4010;42.698;23.124;2022-09-23T06:28:43;118349.16;;;-140.64;100.00
7930;BME280;4010;42.698;23.124;2022-09-23T06:31:11;118349.16;;;-140.64;100.00
7930;BME280;4010;42.698;23.124;2022-09-23T06:33:39;118349.16;;;-140.64;100.00
7930;BME280;4010;42.698;23.124;2022-09-23T06:36:07;118349.16;;;-140.64;100.00
7930;BME280;4010;42.698;23.124;2022-09-23T06:38:37;118349.16;;;-140.64;100.00
7930;BME280;4010;42.698;23.124;2022-09-23T06:41:05;118349.16;;;-140.64;100.00
7930;BME280;4010;42.698;23.124;2022-09-23T06:43:32;118349.16;;;-140.64;100.00
7930;BME280;4010;42.698;23.124;2022-09-23T06:46:00;118349.16;;;-140.64;100.00
7930;BME280;4010;42.698;23.124;2022-09-23T06:48:28;118349.16;;;-140.64;100.00
7930;BME280;4010;42.698;23.124;2022-09-23T06:50:58;118349.16;;;-140.64;100.00
7930;BME280;4010;42.698;23.124;2022-09-23T06:53:27;118349.16;;;-140.64;100.00
7930;BME280;4010;42.698;23.124;2022-09-23T06:56:00;118349.16;;;-140.64;100.00
7930;BME280;4010;42.698;23.124;2022-09-23T06:58:30;118349.16;;;-140.64;100.00
7930;BME280;4010;42.698;23.124;2022-09-23T07:01:00;118349.16;;;-140.64;100.00
7930;BME280;4010;42.698;23.124;2022-09-23T07:03:27;118349.16;;;-140.64;100.00
7930;BME280;4010;42.698;23.124;2022-09-23T07:05:54;118349.16;;;-140.64;100.00
7930;BME280;4010;42.698;23.124;2022-09-23T07:08:21;118349.16;;;-140.64;100.00
7930;BME280;4010;42.698;23.124;2022-09-23T07:10:50;118349.16;;;-140.64;100.00
7930;BME280;4010;42.698;23.124;2022-09-23T07:13:17;118349.16;;;-140.64;100.00
7930;BME280;4010;42.698;23.124;2022-09-23T07:15:49;118349.16;;;-140.64;100.00
7930;BME280;4010;42.698;23.124;2022-09-23T07:18:16;118349.16;;;-140.64;100.00
7930;BME280;4010;42.698;23.124;2022-09-23T07:20:43;118349.16;;;-140.64;100.00
7930;BME280;4010;42.698;23.124;2022-09-23T07:23:10;118349.16;;;-140.64;100.00
7930;BME280;4010;42.698;23.124;2022-09-23T07:25:37;118349.16;;;-140.64;100.00
7930;BME280;4010;42.698;23.124;2022-09-23T07:28:05;118349.16;;;-140.64;100.00
7930;BME280;4010;42.698;23.124;2022-09-23T07:30:35;118349.16;;;-140.64;100.00
7930;BME280;4010;42.698;23.124;2022-09-23T07:33:03;118349.16;;;-140.64;100.00
7930;BME280;4010;42.698;23.124;2022-09-23T07:35:31;118349.16;;;-140.64;100.00
7930;BME280;4010;42.698;23.124;2022-09-23T07:37:58;118349.16;;;-140.64;100.00
7930;BME280;4010;42.698;23.124;2022-09-23T07:40:25;118349.16;;;-140.64;100.00
7930;BME280;4010;42.698;23.124;2022-09-23T07:42:52;118349.16;;;-140.64;100.00
7930;BME280;4010;42.698;23.124;2022-09-23T07:45:19;118349.16;;;-140.64;100.00
7930;BME280;4010;42.698;23.124;2022-09-23T07:47:46;118349.16;;;-140.64;100.00
7930;BME280;4010;42.698;23.124;2022-09-23T07:50:15;118349.16;;;-140.64;100.00
7930;BME280;4010;42.698;23.124;2022-09-23T07:52:43;118349.16;;;-140.64;100.00
7930;BME280;4010;42.698;23.124;2022-09-23T07:55:10;118349.16;;;-140.64;100.00
7930;BME280;4010;42.698;23.124;2022-09-23T07:57:39;118349.16;;;-140.64;100.00
7930;BME280;4010;42.698;23.124;2022-09-23T08:00:07;118349.16;;;-140.64;100.00
7930;BME280;4010;42.698;23.124;2022-09-23T08:02:34;118349.16;;;-140.64;100.00
7930;BME280;4010;42.698;23.124;2022-09-23T08:05:01;118349.16;;;-140.64;100.00
7930;BME280;4010;42.698;23.124;2022-09-23T08:07:29;118349.16;;;-140.64;96.99
7930;BME280;4010;42.698;23.124;2022-09-23T08:09:58;118349.16;;;-140.64;99.86
7930;BME280;4010;42.698;23.124;2022-09-23T08:12:26;118349.16;;;-140.64;98.35
7930;BME280;4010;42.698;23.124;2022-09-23T08:14:53;118349.16;;;-140.64;94.15
7930;BME280;4010;42.698;23.124;2022-09-23T08:17:20;118349.16;;;-140.64;96.63
7930;BME280;4010;42.698;23.124;2022-09-23T08:19:47;118349.16;;;-140.64;98.45
7930;BME280;4010;42.698;23.124;2022-09-23T08:22:13;118349.16;;;-140.64;100.00
7930;BME280;4010;42.698;23.124;2022-09-23T08:24:41;118349.16;;;-140.64;95.15
7930;BME280;4010;42.698;23.124;2022-09-23T08:27:08;118349.16;;;-140.64;90.50
7930;BME280;4010;42.698;23.124;2022-09-23T08:29:37;118349.16;;;-140.64;94.99
7930;BME280;4010;42.698;23.124;2022-09-23T08:32:04;118349.16;;;-140.64;91.87
7930;BME280;4010;42.698;23.124;2022-09-23T08:34:30;118349.16;;;-140.64;95.58
7930;BME280;4010;42.698;23.124;2022-09-23T08:36:57;118349.16;;;-140.64;90.24
7930;BME280;4010;42.698;23.124;2022-09-23T08:39:24;118349.16;;;-140.64;93.13
7930;BME280;4010;42.698;23.124;2022-09-23T08:42:02;118349.16;;;-140.64;89.81
7930;BME280;4010;42.698;23.124;2022-09-23T08:44:41;118349.16;;;-140.64;94.13
7930;BME280;4010;42.698;23.124;2022-09-23T08:47:16;118349.16;;;-140.64;93.09
7930;BME280;4010;42.698;23.124;2022-09-23T08:49:59;118349.16;;;-140.64;91.99
7930;BME280;4010;42.698;23.124;2022-09-23T08:52:32;118349.16;;;-140.64;92.71
7930;BME280;4010;42.698;23.124;2022-09-23T08:55:00;118349.16;;;-140.64;88.77
7930;BME280;4010;42.698;23.124;2022-09-23T08:57:37;118349.16;;;-140.64;89.66
7930;BME280;4010;42.698;23.124;2022-09-23T09:00:13;118349.16;;;-140.64;89.82
7930;BME280;4010;42.698;23.124;2022-09-23T09:02:41;118349.16;;;-140.64;88.32
7930;BME280;4010;42.698;23.124;2022-09-23T09:05:09;118349.16;;;-140.64;86.64
7930;BME280;4010;42.698;23.124;2022-09-23T09:07:39;118349.16;;;-140.64;76.05
7930;BME280;4010;42.698;23.124;2022-09-23T11:35:09;118349.16;;;-140.64;57.37
7930;BME280;4010;42.698;23.124;2022-09-23T11:37:40;118349.16;;;-140.64;54.25
7930;BME280;4010;42.698;23.124;2022-09-23T11:40:14;118349.16;;;-140.64;48.19
7930;BME280;4010;42.698;23.124;2022-09-23T11:42:50;118349.16;;;-140.64;47.33
7930;BME280;4010;42.698;23.124;2022-09-23T11:45:22;118349.16;;;-140.64;47.51
7930;BME280;4010;42.698;23.124;2022-09-23T11:47:53;118349.16;;;-140.64;48.35
7930;BME280;4010;42.698;23.124;2022-09-23T11:50:26;118349.16;;;-140.64;53.52
7930;BME280;4010;42.698;23.124;2022-09-23T11:52:59;118349.16;;;-140.64;53.23
7930;BME280;4010;42.698;23.124;2022-09-23T11:55:31;118349.16;;;-140.64;58.48
7930;BME280;4010;42.698;23.124;2022-09-23T11:58:04;118349.16;;;-140.64;54.07
7930;BME280;4010;42.698;23.124;2022-09-23T12:00:36;118349.16;;;-140.64;51.88
7930;BME280;4010;42.698;23.124;2022-09-23T12:03:09;118349.16;;;-140.64;51.44
7930;BME280;4010;42.698;23.124;2022-09-23T12:05:44;118349.16;;;-140.64;52.84
7930;BME280;4010;42.698;23.124;2022-09-23T12:08:17;118349.16;;;-140.64;51.38
7930;BME280;4010;42.698;23.124;2022-09-23T12:10:52;118349.16;;;-140.64;52.88
7930;BME280;4010;42.698;23.124;2022-09-23T12:13:27;118349.16;;;-140.64;51.25
7930;BME280;4010;42.698;23.124;2022-09-23T12:18:55;118349.16;;;-140.64;48.81
7930;BME280;4010;42.698;23.124;2022-09-23T12:21:45;118349.16;;;-140.64;47.00
7930;BME280;4010;42.698;23.124;2022-09-23T12:24:42;118349.16;;;-140.64;50.16
7930;BME280;4010;42.698;23.124;2022-09-23T12:27:14;118349.16;;;-140.64;50.85
7930;BME280;4010;42.698;23.124;2022-09-23T12:29:51;118349.16;;;-140.64;49.66
7930;BME280;4010;42.698;23.124;2022-09-23T12:32:20;118349.16;;;-140.64;43.74
7930;BME280;4010;42.698;23.124;2022-09-23T12:34:50;118349.16;;;-140.64;44.30
7930;BME280;4010;42.698;23.124;2022-09-23T12:37:25;118349.16;;;-140.64;43.79
7930;BME280;4010;42.698;23.124;2022-09-23T12:39:57;118349.16;;;-140.64;44.35
7930;BME280;4010;42.698;23.124;2022-09-23T12:42:24;118349.16;;;-140.64;44.75
7930;BME280;4010;42.698;23.124;2022-09-23T12:45:30;118349.16;;;-140.64;45.47
7930;BME280;4010;42.698;23.124;2022-09-23T12:47:59;118349.16;;;-140.64;47.34
7930;BME280;4010;42.698;23.124;2022-09-23T12:50:48;118349.16;;;-140.64;51.11
7930;BME280;4010;42.698;23.124;2022-09-23T12:56:19;118349.16;;;-140.64;48.43
7930;BME280;4010;42.698;23.124;2022-09-23T12:59:20;118349.16;;;-140.64;52.97
7930;BME280;4010;42.698;23.124;2022-09-23T13:01:49;118349.16;;;-140.64;47.86
7930;BME280;4010;42.698;23.124;2022-09-23T13:04:34;118349.16;;;-140.64;47.64
7930;BME280;4010;42.698;23.124;2022-09-23T13:07:27;118349.16;;;-140.64;46.09
7930;BME280;4010;42.698;23.124;2022-09-23T13:10:04;118349.16;;;-140.64;43.96
7930;BME280;4010;42.698;23.124;2022-09-23T13:12:34;118349.16;;;-140.64;45.13
7930;BME280;4010;42.698;23.124;2022-09-23T13:15:09;118349.16;;;-140.64;48.07
7930;BME280;4010;42.698;23.124;2022-09-23T13:17:40;118349.16;;;-140.64;48.38
7930;BME280;4010;42.698;23.124;2022-09-23T13:20:33;118349.16;;;-140.64;50.30
7930;BME280;4010;42.698;23.124;2022-09-23T13:23:29;118349.16;;;-140.64;52.34
7930;BME280;4010;42.698;23.124;2022-09-23T13:25:58;118349.16;;;-140.64;48.07
7930;BME280;4010;42.698;23.124;2022-09-23T13:28:33;118349.16;;;-140.64;48.59
7930;BME280;4010;42.698;23.124;2022-09-23T13:31:03;118349.16;;;-140.64;49.60
7930;BME280;4010;42.698;23.124;2022-09-23T13:33:37;118349.16;;;-140.64;49.89
7930;BME280;4010;42.698;23.124;2022-09-23T13:36:11;118349.16;;;-140.64;49.36
7930;BME280;4010;42.698;23.124;2022-09-23T13:38:38;118349.16;;;-140.64;53.52
7930;BME280;4010;42.698;23.124;2022-09-23T13:41:09;118349.16;;;-140.64;52.64
7930;BME280;4010;42.698;23.124;2022-09-23T13:43:42;118349.16;;;-140.64;54.02
7930;BME280;4010;42.698;23.124;2022-09-23T13:46:12;118349.16;;;-140.64;54.54
7930;BME280;4010;42.698;23.124;2022-09-23T13:48:43;118349.16;;;-140.64;52.98
7930;BME280;4010;42.698;23.124;2022-09-23T13:51:17;118349.16;;;-140.64;52.69
7930;BME280;4010;42.698;23.124;2022-09-23T13:53:51;118349.16;;;-140.64;55.04
7930;BME280;4010;42.698;23.124;2022-09-23T13:56:19;118349.16;;;-140.64;55.10
7930;BME280;4010;42.698;23.124;2022-09-23T13:58:47;118349.16;;;-140.64;57.41
7930;BME280;4010;42.698;23.124;2022-09-23T14:01:20;118349.16;;;-140.64;57.75
7930;BME280;4010;42.698;23.124;2022-09-23T14:03:47;118349.16;;;-140.64;55.21
7930;BME280;4010;42.698;23.124;2022-09-23T14:06:15;118349.16;;;-140.64;60.78
7930;BME280;4010;42.698;23.124;2022-09-23T14:08:44;118349.16;;;-140.64;52.83
7930;BME280;4010;42.698;23.124;2022-09-23T14:11:14;118349.16;;;-140.64;57.30
7930;BME280;4010;42.698;23.124;2022-09-23T14:13:42;118349.16;;;-140.64;58.71
7930;BME280;4010;42.698;23.124;2022-09-23T14:16:12;118349.16;;;-140.64;54.49
7930;BME280;4010;42.698;23.124;2022-09-23T14:18:42;118349.16;;;-140.64;58.65
7930;BME280;4010;42.698;23.124;2022-09-23T14:21:25;118349.16;;;-140.64;58.94
7930;BME280;4010;42.698;23.124;2022-09-23T14:23:52;118349.16;;;-140.64;63.22
7930;BME280;4010;42.698;23.124;2022-09-23T14:26:19;118349.16;;;-140.64;56.89
7930;BME280;4010;42.698;23.124;2022-09-23T14:28:47;118349.16;;;-140.64;51.54
7930;BME280;4010;42.698;23.124;2022-09-23T14:31:15;118349.16;;;-140.64;50.72
7930;BME280;4010;42.698;23.124;2022-09-23T14:33:42;118349.16;;;-140.64;50.14
7930;BME280;4010;42.698;23.124;2022-09-23T14:36:11;118349.16;;;-140.64;49.85
7930;BME280;4010;42.698;23.124;2022-09-23T14:39:01;118349.16;;;-140.64;49.44
7930;BME280;4010;42.698;23.124;2022-09-23T14:41:33;118349.16;;;-140.64;51.04
7930;BME280;4010;42.698;23.124;2022-09-23T14:44:01;118349.16;;;-140.64;50.02
7930;BME280;4010;42.698;23.124;2022-09-23T14:46:31;118349.16;;;-140.64;47.58
7930;BME280;4010;42.698;23.124;2022-09-23T14:49:03;118349.16;;;-140.64;48.04
7930;BME280;4010;42.698;23.124;2022-09-23T14:51:35;118349.16;;;-140.64;54.87
7930;BME280;4010;42.698;23.124;2022-09-23T14:54:31;118349.16;;;-140.64;60.30
7930;BME280;4010;42.698;23.124;2022-09-23T14:57:00;118349.16;;;-140.64;60.86
7930;BME280;4010;42.698;23.124;2022-09-23T14:59:32;118349.16;;;-140.64;61.89
7930;BME280;4010;42.698;23.124;2022-09-23T15:02:01;118349.16;;;-140.64;62.07
7930;BME280;4010;42.698;23.124;2022-09-23T15:04:31;118349.16;;;-140.64;63.61
7930;BME280;4010;42.698;23.124;2022-09-23T15:07:03;118349.16;;;-140.64;66.81
7930;BME280;4010;42.698;23.124;2022-09-23T15:09:34;118349.16;;;-140.64;67.31
7930;BME280;4010;42.698;23.124;2022-09-23T15:12:04;118349.16;;;-140.64;69.55
7930;BME280;4010;42.698;23.124;2022-09-23T15:14:35;118349.16;;;-140.64;72.36
7930;BME280;4010;42.698;23.124;2022-09-23T15:17:12;118349.16;;;-140.64;74.46
7930;BME280;4010;42.698;23.124;2022-09-23T15:19:41;118349.16;;;-140.64;76.31
7930;BME280;4010;42.698;23.124;2022-09-23T15:22:08;118349.16;;;-140.64;79.57
7930;BME280;4010;42.698;23.124;2022-09-23T15:24:39;118349.16;;;-140.64;80.87
7930;BME280;4010;42.698;23.124;2022-09-23T15:27:28;118349.16;;;-140.64;83.79
7930;BME280;4010;42.698;23.124;2022-09-23T15:30:01;118349.16;;;-140.64;85.09
7930;BME280;4010;42.698;23.124;2022-09-23T15:32:37;118349.16;;;-140.64;86.73
7930;BME280;4010;42.698;23.124;2022-09-23T15:35:04;118349.16;;;-140.64;88.27
7930;BME280;4010;42.698;23.124;2022-09-23T15:37:32;118349.16;;;-140.64;90.46
7930;BME280;4010;42.698;23.124;2022-09-23T15:40:00;118349.16;;;-140.64;90.99